EWG5NH EDDH-EGKK
Flight info
| Callsign | EWG5NH |
|---|---|
| Flight time | 1h 17m |
| Altitude | 38000 |
| Route | WSN5G/33 WSN N125 ONTAZ DCT GALSO Q63 ARREK Y4 TEBRA |
| Aircraft | A320/M-SDE3FGHIRWY/LB1 |
Departure
| Time | 2026-04-25 15:05 |
|---|---|
| Airport | Hamburg Helmut Schmidt Airport (EDDH) |
Arrival
| Time | 2026-04-25 16:22 |
|---|---|
| Airport | London Gatwick Airport (EGKK) |
| Time | Latitude | Longitude | Altitude | Speed | Heading |
|---|---|---|---|---|---|
| 2026-04-25 14:13 | 53.63331 | 10.00364 | 49 ft | 0 kts | 86° |
| 2026-04-25 14:55 | 53.63331 | 10.00362 | 48 ft | 1 kts | 86° |
| 2026-04-25 14:55 | 53.63330 | 10.00336 | 48 ft | 3 kts | 86° |
| 2026-04-25 14:55 | 53.63329 | 10.00302 | 46 ft | 3 kts | 86° |
| 2026-04-25 14:56 | 53.63327 | 10.00268 | 43 ft | 3 kts | 86° |
| 2026-04-25 14:56 | 53.63326 | 10.00235 | 44 ft | 3 kts | 88° |
| 2026-04-25 14:56 | 53.63327 | 10.00202 | 43 ft | 3 kts | 109° |
| 2026-04-25 14:56 | 53.63336 | 10.00174 | 43 ft | 3 kts | 145° |
| 2026-04-25 14:57 | 53.63349 | 10.00163 | 47 ft | 1 kts | 175° |
| 2026-04-25 14:57 | 53.63350 | 10.00163 | 47 ft | 0 kts | 176° |
| 2026-04-25 15:00 | 53.63345 | 10.00163 | 46 ft | 2 kts | 175° |
| 2026-04-25 15:00 | 53.63324 | 10.00181 | 44 ft | 5 kts | 149° |
| 2026-04-25 15:00 | 53.63285 | 10.00221 | 48 ft | 8 kts | 149° |
| 2026-04-25 15:00 | 53.63221 | 10.00246 | 48 ft | 11 kts | 175° |
| 2026-04-25 15:01 | 53.63148 | 10.00255 | 46 ft | 9 kts | 176° |
| 2026-04-25 15:01 | 53.63079 | 10.00263 | 48 ft | 11 kts | 179° |
| 2026-04-25 15:01 | 53.63017 | 10.00208 | 47 ft | 10 kts | 213° |
| 2026-04-25 15:01 | 53.62951 | 10.00137 | 48 ft | 13 kts | 212° |
| 2026-04-25 15:02 | 53.62889 | 10.00071 | 48 ft | 9 kts | 212° |
| 2026-04-25 15:02 | 53.62862 | 10.00018 | 48 ft | 8 kts | 243° |
| 2026-04-25 15:02 | 53.62848 | 9.99971 | 48 ft | 0 kts | 243° |
| 2026-04-25 15:02 | 53.62845 | 9.99962 | 48 ft | 0 kts | 243° |
| 2026-04-25 15:03 | 53.62840 | 9.99945 | 47 ft | 7 kts | 243° |
| 2026-04-25 15:04 | 53.62819 | 9.99874 | 43 ft | 12 kts | 243° |
| 2026-04-25 15:04 | 53.62840 | 9.99769 | 45 ft | 11 kts | 333° |
| 2026-04-25 15:04 | 53.62926 | 9.99695 | 45 ft | 21 kts | 332° |
| 2026-04-25 15:04 | 53.63219 | 9.99441 | 47 ft | 79 kts | 332° |
| 2026-04-25 15:05 | 53.63873 | 9.98874 | 50 ft | 130 kts | 333° |
| 2026-04-25 15:05 | 53.64740 | 9.98123 | 452 ft | 140 kts | 326° |
| 2026-04-25 15:05 | 53.65617 | 9.97336 | 1104 ft | 147 kts | 327° |
| 2026-04-25 15:06 | 53.67641 | 9.95621 | 2149 ft | 178 kts | 327° |
| 2026-04-25 15:06 | 53.68784 | 9.94640 | 2695 ft | 191 kts | 328° |
| 2026-04-25 15:06 | 53.69968 | 9.93633 | 3625 ft | 189 kts | 328° |
| 2026-04-25 15:06 | 53.71075 | 9.92371 | 4261 ft | 201 kts | 309° |
| 2026-04-25 15:07 | 53.71670 | 9.90147 | 4777 ft | 222 kts | 278° |
| 2026-04-25 15:07 | 53.71356 | 9.87506 | 4973 ft | 239 kts | 252° |
| 2026-04-25 15:07 | 53.70596 | 9.84994 | 5004 ft | 240 kts | 251° |
| 2026-04-25 15:07 | 53.69850 | 9.82426 | 5623 ft | 245 kts | 252° |
| 2026-04-25 15:08 | 53.69123 | 9.79823 | 6621 ft | 245 kts | 253° |
| 2026-04-25 15:08 | 53.68446 | 9.77173 | 7530 ft | 246 kts | 255° |
| 2026-04-25 15:08 | 53.67790 | 9.74488 | 8427 ft | 248 kts | 256° |
| 2026-04-25 15:08 | 53.67136 | 9.71771 | 9351 ft | 251 kts | 256° |
| 2026-04-25 15:09 | 53.66477 | 9.69039 | 10199 ft | 254 kts | 256° |
| 2026-04-25 15:09 | 53.65797 | 9.66206 | 10565 ft | 274 kts | 256° |
| 2026-04-25 15:09 | 53.64261 | 9.59877 | 11529 ft | 300 kts | 255° |
| 2026-04-25 15:10 | 53.63448 | 9.56613 | 12224 ft | 304 kts | 254° |
| 2026-04-25 15:10 | 53.62618 | 9.53300 | 12930 ft | 309 kts | 254° |
| 2026-04-25 15:10 | 53.60924 | 9.46543 | 14294 ft | 317 kts | 254° |
| 2026-04-25 15:11 | 53.60073 | 9.43146 | 14909 ft | 321 kts | 254° |
| 2026-04-25 15:11 | 53.59201 | 9.39660 | 15526 ft | 324 kts | 254° |
| 2026-04-25 15:11 | 53.58319 | 9.36143 | 16141 ft | 328 kts | 254° |
| 2026-04-25 15:12 | 53.56518 | 9.28986 | 17362 ft | 336 kts | 254° |
| 2026-04-25 15:12 | 53.55603 | 9.25347 | 17969 ft | 339 kts | 254° |
| 2026-04-25 15:12 | 53.54674 | 9.21655 | 18555 ft | 343 kts | 254° |
| 2026-04-25 15:12 | 53.54054 | 9.19191 | 18922 ft | 346 kts | 254° |
| 2026-04-25 15:13 | 53.52790 | 9.14181 | 19683 ft | 350 kts | 254° |
| 2026-04-25 15:13 | 53.50877 | 9.06625 | 20835 ft | 356 kts | 254° |
| 2026-04-25 15:13 | 53.49899 | 9.02775 | 21392 ft | 359 kts | 253° |
| 2026-04-25 15:14 | 53.48913 | 8.98898 | 21939 ft | 362 kts | 253° |
| 2026-04-25 15:14 | 53.47918 | 8.94997 | 22455 ft | 365 kts | 253° |
| 2026-04-25 15:14 | 53.46908 | 8.91054 | 23011 ft | 369 kts | 253° |
| 2026-04-25 15:14 | 53.45885 | 8.87081 | 23559 ft | 372 kts | 253° |
| 2026-04-25 15:15 | 53.44866 | 8.83116 | 24008 ft | 375 kts | 253° |
| 2026-04-25 15:15 | 53.43831 | 8.79078 | 24452 ft | 378 kts | 253° |
| 2026-04-25 15:15 | 53.42787 | 8.75008 | 24869 ft | 381 kts | 253° |
| 2026-04-25 15:15 | 53.41730 | 8.70908 | 25291 ft | 384 kts | 253° |
| 2026-04-25 15:16 | 53.40662 | 8.66778 | 25703 ft | 387 kts | 253° |
| 2026-04-25 15:16 | 53.39587 | 8.62627 | 26115 ft | 390 kts | 253° |
| 2026-04-25 15:16 | 53.37402 | 8.54215 | 26889 ft | 396 kts | 253° |
| 2026-04-25 15:17 | 53.35193 | 8.45741 | 27623 ft | 402 kts | 252° |
| 2026-04-25 15:17 | 53.34063 | 8.41432 | 27999 ft | 405 kts | 252° |
| 2026-04-25 15:17 | 53.32926 | 8.37096 | 28356 ft | 408 kts | 252° |
| 2026-04-25 15:18 | 53.31784 | 8.32734 | 28722 ft | 410 kts | 252° |
| 2026-04-25 15:18 | 53.29490 | 8.23975 | 29432 ft | 416 kts | 252° |
| 2026-04-25 15:18 | 53.28321 | 8.19526 | 29776 ft | 419 kts | 252° |
| 2026-04-25 15:19 | 53.27140 | 8.15043 | 30130 ft | 422 kts | 252° |
| 2026-04-25 15:19 | 53.26336 | 8.12006 | 30335 ft | 424 kts | 252° |
| 2026-04-25 15:19 | 53.24745 | 8.06017 | 30731 ft | 427 kts | 252° |
| 2026-04-25 15:19 | 53.23531 | 8.01468 | 31020 ft | 430 kts | 251° |
| 2026-04-25 15:20 | 53.22309 | 7.96893 | 31326 ft | 432 kts | 251° |
| 2026-04-25 15:20 | 53.21084 | 7.92314 | 31737 ft | 431 kts | 251° |
| 2026-04-25 15:20 | 53.19859 | 7.87739 | 32165 ft | 430 kts | 251° |
| 2026-04-25 15:20 | 53.18636 | 7.83180 | 32593 ft | 430 kts | 251° |
| 2026-04-25 15:21 | 53.17430 | 7.78690 | 33015 ft | 429 kts | 251° |
| 2026-04-25 15:21 | 53.16208 | 7.74141 | 33450 ft | 428 kts | 251° |
| 2026-04-25 15:21 | 53.14990 | 7.69614 | 33883 ft | 427 kts | 251° |
| 2026-04-25 15:21 | 53.13772 | 7.65091 | 34298 ft | 426 kts | 251° |
| 2026-04-25 15:22 | 53.12554 | 7.60587 | 34684 ft | 425 kts | 251° |
| 2026-04-25 15:22 | 53.11335 | 7.56103 | 35058 ft | 424 kts | 251° |
| 2026-04-25 15:22 | 53.10132 | 7.51693 | 35429 ft | 422 kts | 251° |
| 2026-04-25 15:22 | 53.08920 | 7.47248 | 35797 ft | 421 kts | 251° |
| 2026-04-25 15:23 | 53.07710 | 7.42814 | 36160 ft | 419 kts | 251° |
| 2026-04-25 15:23 | 53.06501 | 7.38391 | 36497 ft | 418 kts | 251° |
| 2026-04-25 15:23 | 53.05299 | 7.33993 | 36846 ft | 417 kts | 251° |
| 2026-04-25 15:23 | 53.04098 | 7.29607 | 37190 ft | 415 kts | 251° |
| 2026-04-25 15:24 | 53.02898 | 7.25241 | 37467 ft | 415 kts | 250° |
| 2026-04-25 15:24 | 53.01694 | 7.20876 | 37736 ft | 414 kts | 250° |
| 2026-04-25 15:24 | 53.00481 | 7.16592 | 38011 ft | 414 kts | 250° |
| 2026-04-25 15:24 | 52.99654 | 7.13733 | 38120 ft | 414 kts | 249° |
| 2026-04-25 15:25 | 52.96671 | 7.03659 | 38148 ft | 415 kts | 249° |
| 2026-04-25 15:25 | 52.94102 | 6.95062 | 38155 ft | 415 kts | 249° |
| 2026-04-25 15:26 | 52.91551 | 6.86466 | 38158 ft | 415 kts | 249° |
| 2026-04-25 15:26 | 52.89007 | 6.77875 | 38159 ft | 423 kts | 249° |
| 2026-04-25 15:27 | 52.86378 | 6.69035 | 38163 ft | 430 kts | 248° |
| 2026-04-25 15:28 | 52.82381 | 6.55696 | 38160 ft | 431 kts | 248° |
| 2026-04-25 15:28 | 52.79712 | 6.46816 | 38160 ft | 431 kts | 248° |
| 2026-04-25 15:29 | 52.77035 | 6.37947 | 38162 ft | 431 kts | 248° |
| 2026-04-25 15:29 | 52.74345 | 6.29095 | 38170 ft | 432 kts | 248° |
| 2026-04-25 15:30 | 52.71646 | 6.20231 | 38174 ft | 432 kts | 248° |
| 2026-04-25 15:30 | 52.68943 | 6.11366 | 38184 ft | 433 kts | 247° |
| 2026-04-25 15:31 | 52.66241 | 6.02552 | 38184 ft | 433 kts | 247° |
| 2026-04-25 15:31 | 52.63515 | 5.93707 | 38190 ft | 433 kts | 247° |
| 2026-04-25 15:32 | 52.60785 | 5.84853 | 38192 ft | 433 kts | 246° |
| 2026-04-25 15:32 | 52.58045 | 5.76016 | 38194 ft | 433 kts | 246° |
| 2026-04-25 15:33 | 52.53933 | 5.62810 | 38198 ft | 434 kts | 246° |
| 2026-04-25 15:33 | 52.51173 | 5.53977 | 38199 ft | 434 kts | 246° |
| 2026-04-25 15:34 | 52.48423 | 5.45216 | 38200 ft | 434 kts | 246° |
| 2026-04-25 15:34 | 52.46564 | 5.39321 | 38200 ft | 434 kts | 246° |
| 2026-04-25 15:35 | 52.41458 | 5.23197 | 38199 ft | 435 kts | 245° |
| 2026-04-25 15:36 | 52.37276 | 5.10046 | 38197 ft | 435 kts | 245° |
| 2026-04-25 15:36 | 52.34469 | 5.01254 | 38199 ft | 436 kts | 245° |
| 2026-04-25 15:37 | 52.31640 | 4.92449 | 38203 ft | 436 kts | 245° |
| 2026-04-25 15:37 | 52.28809 | 4.83656 | 38203 ft | 437 kts | 245° |
| 2026-04-25 15:38 | 52.25984 | 4.74901 | 38204 ft | 437 kts | 245° |
| 2026-04-25 15:38 | 52.23139 | 4.66122 | 38208 ft | 437 kts | 245° |
| 2026-04-25 15:39 | 52.20283 | 4.57344 | 38211 ft | 437 kts | 244° |
| 2026-04-25 15:39 | 52.17437 | 4.48631 | 38214 ft | 437 kts | 244° |
| 2026-04-25 15:40 | 52.15529 | 4.42817 | 38211 ft | 438 kts | 244° |
| 2026-04-25 15:40 | 52.11699 | 4.31170 | 38216 ft | 438 kts | 244° |
| 2026-04-25 15:41 | 52.08811 | 4.22435 | 38215 ft | 437 kts | 244° |
| 2026-04-25 15:41 | 52.05925 | 4.13717 | 38221 ft | 437 kts | 244° |
| 2026-04-25 15:42 | 52.03037 | 4.05004 | 38221 ft | 437 kts | 244° |
| 2026-04-25 15:42 | 52.00167 | 3.96363 | 38229 ft | 437 kts | 243° |
| 2026-04-25 15:43 | 51.97263 | 3.87685 | 38232 ft | 437 kts | 243° |
| 2026-04-25 15:43 | 51.94344 | 3.79006 | 38234 ft | 437 kts | 243° |
| 2026-04-25 15:44 | 51.91438 | 3.70417 | 38238 ft | 436 kts | 243° |
| 2026-04-25 15:44 | 51.89006 | 3.63235 | 38235 ft | 436 kts | 243° |
| 2026-04-25 15:45 | 51.86082 | 3.54618 | 37959 ft | 436 kts | 243° |
| 2026-04-25 15:45 | 51.84627 | 3.50338 | 37461 ft | 431 kts | 243° |
| 2026-04-25 15:45 | 51.83672 | 3.47535 | 37142 ft | 428 kts | 243° |
| 2026-04-25 15:46 | 51.81762 | 3.41936 | 36508 ft | 423 kts | 243° |
| 2026-04-25 15:46 | 51.80343 | 3.37782 | 36047 ft | 421 kts | 243° |
| 2026-04-25 15:46 | 51.78929 | 3.33639 | 35588 ft | 419 kts | 243° |
| 2026-04-25 15:46 | 51.77520 | 3.29529 | 35142 ft | 416 kts | 243° |
| 2026-04-25 15:47 | 51.76135 | 3.25501 | 34707 ft | 413 kts | 243° |
| 2026-04-25 15:47 | 51.74745 | 3.21459 | 34275 ft | 409 kts | 244° |
| 2026-04-25 15:47 | 51.73607 | 3.17287 | 33788 ft | 404 kts | 253° |
| 2026-04-25 15:47 | 51.72917 | 3.12910 | 33323 ft | 401 kts | 262° |
| 2026-04-25 15:48 | 51.72537 | 3.08449 | 32847 ft | 410 kts | 263° |
| 2026-04-25 15:48 | 51.72145 | 3.03829 | 32367 ft | 410 kts | 263° |
| 2026-04-25 15:48 | 51.71750 | 2.99284 | 31900 ft | 408 kts | 263° |
| 2026-04-25 15:48 | 51.71358 | 2.94820 | 31449 ft | 406 kts | 263° |
| 2026-04-25 15:49 | 51.70961 | 2.90323 | 30993 ft | 404 kts | 263° |
| 2026-04-25 15:49 | 51.70561 | 2.85798 | 30558 ft | 410 kts | 263° |
| 2026-04-25 15:49 | 51.70159 | 2.81241 | 30096 ft | 410 kts | 263° |
| 2026-04-25 15:49 | 51.69757 | 2.76704 | 29577 ft | 407 kts | 263° |
| 2026-04-25 15:50 | 51.69353 | 2.72190 | 29081 ft | 404 kts | 262° |
| 2026-04-25 15:50 | 51.68950 | 2.67715 | 28588 ft | 402 kts | 263° |
| 2026-04-25 15:50 | 51.68552 | 2.63277 | 28102 ft | 399 kts | 263° |
| 2026-04-25 15:50 | 51.68157 | 2.58867 | 27622 ft | 396 kts | 263° |
| 2026-04-25 15:51 | 51.67765 | 2.54470 | 27155 ft | 394 kts | 263° |
| 2026-04-25 15:51 | 51.67507 | 2.51578 | 26852 ft | 392 kts | 263° |
| 2026-04-25 15:51 | 51.66980 | 2.45772 | 26242 ft | 389 kts | 262° |
| 2026-04-25 15:51 | 51.66583 | 2.41470 | 25799 ft | 387 kts | 262° |
| 2026-04-25 15:52 | 51.66195 | 2.37234 | 25367 ft | 385 kts | 262° |
| 2026-04-25 15:52 | 51.65805 | 2.32977 | 24944 ft | 383 kts | 262° |
| 2026-04-25 15:52 | 51.65413 | 2.28746 | 24509 ft | 381 kts | 262° |
| 2026-04-25 15:52 | 51.65021 | 2.24524 | 24090 ft | 379 kts | 262° |
| 2026-04-25 15:53 | 51.64628 | 2.20330 | 23661 ft | 378 kts | 262° |
| 2026-04-25 15:53 | 51.64232 | 2.16147 | 23163 ft | 376 kts | 262° |
| 2026-04-25 15:53 | 51.63838 | 2.11997 | 22678 ft | 374 kts | 262° |
| 2026-04-25 15:53 | 51.63446 | 2.07871 | 22203 ft | 372 kts | 262° |
| 2026-04-25 15:54 | 51.63059 | 2.03771 | 21735 ft | 370 kts | 262° |
| 2026-04-25 15:54 | 51.62680 | 1.99688 | 21272 ft | 368 kts | 262° |
| 2026-04-25 15:54 | 51.62306 | 1.95623 | 20818 ft | 366 kts | 262° |
| 2026-04-25 15:54 | 51.61935 | 1.91590 | 20376 ft | 364 kts | 262° |
| 2026-04-25 15:55 | 51.61548 | 1.87580 | 19931 ft | 362 kts | 259° |
| 2026-04-25 15:55 | 51.60761 | 1.83754 | 19491 ft | 361 kts | 245° |
| 2026-04-25 15:55 | 51.59431 | 1.80332 | 19068 ft | 362 kts | 232° |
| 2026-04-25 15:55 | 51.57773 | 1.77286 | 18647 ft | 361 kts | 230° |
| 2026-04-25 15:56 | 51.56130 | 1.74308 | 18191 ft | 360 kts | 230° |
| 2026-04-25 15:56 | 51.54474 | 1.71310 | 17708 ft | 357 kts | 230° |
| 2026-04-25 15:56 | 51.52830 | 1.68335 | 17236 ft | 355 kts | 230° |
| 2026-04-25 15:56 | 51.51192 | 1.65374 | 16763 ft | 352 kts | 230° |
| 2026-04-25 15:57 | 51.49606 | 1.62400 | 16298 ft | 349 kts | 236° |
| 2026-04-25 15:57 | 51.48415 | 1.59042 | 15973 ft | 344 kts | 249° |
| 2026-04-25 15:57 | 51.47585 | 1.55442 | 15668 ft | 343 kts | 251° |
| 2026-04-25 15:57 | 51.46767 | 1.51849 | 15377 ft | 342 kts | 251° |
| 2026-04-25 15:58 | 51.45949 | 1.48308 | 15086 ft | 341 kts | 251° |
| 2026-04-25 15:58 | 51.45121 | 1.44760 | 14807 ft | 339 kts | 251° |
| 2026-04-25 15:58 | 51.44292 | 1.41232 | 14567 ft | 336 kts | 249° |
| 2026-04-25 15:58 | 51.43180 | 1.37990 | 14327 ft | 329 kts | 235° |
| 2026-04-25 15:59 | 51.41637 | 1.35367 | 14201 ft | 320 kts | 220° |
| 2026-04-25 15:59 | 51.39857 | 1.33250 | 14215 ft | 318 kts | 218° |
| 2026-04-25 15:59 | 51.38075 | 1.31153 | 14218 ft | 318 kts | 218° |
| 2026-04-25 15:59 | 51.36290 | 1.29044 | 14217 ft | 318 kts | 218° |
| 2026-04-25 16:00 | 51.34614 | 1.26769 | 14214 ft | 313 kts | 231° |
| 2026-04-25 16:00 | 51.34180 | 1.25887 | 14213 ft | 308 kts | 237° |
| 2026-04-25 16:00 | 51.32279 | 1.21114 | 14217 ft | 302 kts | 240° |
| 2026-04-25 16:00 | 51.31180 | 1.18294 | 14147 ft | 303 kts | 240° |
| 2026-04-25 16:01 | 51.30074 | 1.15447 | 13822 ft | 298 kts | 240° |
| 2026-04-25 16:01 | 51.28976 | 1.12626 | 13482 ft | 299 kts | 239° |
| 2026-04-25 16:01 | 51.27876 | 1.09816 | 13136 ft | 298 kts | 239° |
| 2026-04-25 16:01 | 51.26777 | 1.07017 | 12806 ft | 297 kts | 239° |
| 2026-04-25 16:02 | 51.25683 | 1.04231 | 12468 ft | 295 kts | 239° |
| 2026-04-25 16:02 | 51.24593 | 1.01459 | 12131 ft | 295 kts | 239° |
| 2026-04-25 16:02 | 51.23500 | 0.98677 | 11807 ft | 294 kts | 239° |
| 2026-04-25 16:02 | 51.22417 | 0.95924 | 11508 ft | 292 kts | 239° |
| 2026-04-25 16:03 | 51.21335 | 0.93183 | 11211 ft | 291 kts | 239° |
| 2026-04-25 16:03 | 51.20257 | 0.90457 | 10959 ft | 291 kts | 239° |
| 2026-04-25 16:03 | 51.19181 | 0.87733 | 10713 ft | 290 kts | 239° |
| 2026-04-25 16:03 | 51.18109 | 0.85024 | 10468 ft | 289 kts | 239° |
| 2026-04-25 16:04 | 51.17036 | 0.82309 | 10226 ft | 288 kts | 239° |
| 2026-04-25 16:04 | 51.15982 | 0.79646 | 9978 ft | 287 kts | 239° |
| 2026-04-25 16:04 | 51.14918 | 0.76960 | 9741 ft | 286 kts | 239° |
| 2026-04-25 16:04 | 51.13852 | 0.74276 | 9479 ft | 285 kts | 238° |
| 2026-04-25 16:05 | 51.12795 | 0.71616 | 9213 ft | 284 kts | 239° |
| 2026-04-25 16:05 | 51.11735 | 0.68955 | 8952 ft | 283 kts | 239° |
| 2026-04-25 16:05 | 51.09627 | 0.63675 | 8454 ft | 282 kts | 239° |
| 2026-04-25 16:06 | 51.08577 | 0.61044 | 8206 ft | 281 kts | 239° |
| 2026-04-25 16:06 | 51.07530 | 0.58422 | 7952 ft | 280 kts | 239° |
| 2026-04-25 16:06 | 51.06485 | 0.55807 | 7749 ft | 279 kts | 238° |
| 2026-04-25 16:06 | 51.05438 | 0.53198 | 7615 ft | 280 kts | 238° |
| 2026-04-25 16:07 | 51.04568 | 0.50499 | 7490 ft | 277 kts | 256° |
| 2026-04-25 16:07 | 51.04430 | 0.49488 | 7453 ft | 277 kts | 262° |
| 2026-04-25 16:07 | 51.04102 | 0.44427 | 7255 ft | 276 kts | 266° |
| 2026-04-25 16:07 | 51.03943 | 0.41379 | 7250 ft | 277 kts | 266° |
| 2026-04-25 16:08 | 51.03806 | 0.38611 | 7258 ft | 277 kts | 266° |
| 2026-04-25 16:08 | 51.03654 | 0.35563 | 7260 ft | 277 kts | 266° |
| 2026-04-25 16:08 | 51.03500 | 0.32502 | 7250 ft | 277 kts | 266° |
| 2026-04-25 16:08 | 51.03349 | 0.29487 | 7249 ft | 277 kts | 266° |
| 2026-04-25 16:09 | 51.03194 | 0.26436 | 7246 ft | 277 kts | 266° |
| 2026-04-25 16:09 | 51.03041 | 0.23379 | 7245 ft | 277 kts | 266° |
| 2026-04-25 16:09 | 51.02887 | 0.20327 | 7241 ft | 277 kts | 266° |
| 2026-04-25 16:09 | 51.02735 | 0.17286 | 7235 ft | 277 kts | 266° |
| 2026-04-25 16:10 | 51.02582 | 0.14238 | 7229 ft | 277 kts | 266° |
| 2026-04-25 16:10 | 51.02428 | 0.11190 | 7187 ft | 277 kts | 266° |
| 2026-04-25 16:10 | 51.02274 | 0.08142 | 7193 ft | 277 kts | 266° |
| 2026-04-25 16:10 | 51.02123 | 0.05097 | 7196 ft | 277 kts | 266° |
| 2026-04-25 16:11 | 51.01971 | 0.02045 | 7191 ft | 277 kts | 266° |
| 2026-04-25 16:11 | 51.01818 | -0.01002 | 7191 ft | 277 kts | 266° |
| 2026-04-25 16:11 | 51.01665 | -0.04047 | 7190 ft | 277 kts | 266° |
| 2026-04-25 16:11 | 51.01511 | -0.07104 | 7102 ft | 279 kts | 266° |
| 2026-04-25 16:12 | 51.01358 | -0.10159 | 6820 ft | 276 kts | 266° |
| 2026-04-25 16:12 | 51.01204 | -0.13194 | 6523 ft | 274 kts | 266° |
| 2026-04-25 16:12 | 51.01054 | -0.16172 | 6222 ft | 273 kts | 266° |
| 2026-04-25 16:12 | 51.01003 | -0.17184 | 6122 ft | 273 kts | 266° |
| 2026-04-25 16:13 | 51.00748 | -0.22158 | 5696 ft | 271 kts | 266° |
| 2026-04-25 16:13 | 51.00593 | -0.25145 | 5439 ft | 270 kts | 266° |
| 2026-04-25 16:13 | 51.00441 | -0.28110 | 5188 ft | 269 kts | 266° |
| 2026-04-25 16:13 | 51.00289 | -0.31057 | 4937 ft | 268 kts | 266° |
| 2026-04-25 16:14 | 51.00134 | -0.34015 | 4693 ft | 267 kts | 266° |
| 2026-04-25 16:14 | 50.99981 | -0.36954 | 4430 ft | 267 kts | 266° |
| 2026-04-25 16:14 | 50.99830 | -0.39887 | 4176 ft | 266 kts | 266° |
| 2026-04-25 16:14 | 50.99683 | -0.42816 | 3922 ft | 265 kts | 266° |
| 2026-04-25 16:15 | 50.99668 | -0.45718 | 3664 ft | 261 kts | 282° |
| 2026-04-25 16:15 | 51.00412 | -0.48279 | 3412 ft | 254 kts | 311° |
| 2026-04-25 16:15 | 51.01648 | -0.50174 | 3153 ft | 240 kts | 320° |
| 2026-04-25 16:15 | 51.02863 | -0.51813 | 3023 ft | 223 kts | 321° |
| 2026-04-25 16:16 | 51.03996 | -0.53321 | 3002 ft | 203 kts | 321° |
| 2026-04-25 16:16 | 51.05065 | -0.54696 | 3030 ft | 193 kts | 328° |
| 2026-04-25 16:16 | 51.06320 | -0.55197 | 3000 ft | 188 kts | 9° |
| 2026-04-25 16:16 | 51.07467 | -0.54310 | 3010 ft | 185 kts | 43° |
| 2026-04-25 16:17 | 51.08349 | -0.52807 | 3007 ft | 186 kts | 50° |
| 2026-04-25 16:17 | 51.09179 | -0.51227 | 3007 ft | 186 kts | 51° |
| 2026-04-25 16:17 | 51.10000 | -0.49632 | 3010 ft | 186 kts | 51° |
| 2026-04-25 16:17 | 51.10722 | -0.47996 | 3004 ft | 177 kts | 67° |
| 2026-04-25 16:18 | 51.11031 | -0.46153 | 3004 ft | 169 kts | 77° |
| 2026-04-25 16:18 | 51.11117 | -0.45540 | 3014 ft | 168 kts | 78° |
| 2026-04-25 16:18 | 51.11537 | -0.42549 | 2911 ft | 166 kts | 77° |
| 2026-04-25 16:18 | 51.11789 | -0.40755 | 2722 ft | 165 kts | 78° |
| 2026-04-25 16:19 | 51.12039 | -0.38973 | 2521 ft | 165 kts | 78° |
| 2026-04-25 16:19 | 51.12291 | -0.37171 | 2308 ft | 167 kts | 77° |
| 2026-04-25 16:19 | 51.12544 | -0.35363 | 2071 ft | 169 kts | 78° |
| 2026-04-25 16:20 | 51.13035 | -0.31844 | 1647 ft | 152 kts | 78° |
| 2026-04-25 16:20 | 51.13268 | -0.30168 | 1438 ft | 156 kts | 78° |
| 2026-04-25 16:20 | 51.13709 | -0.26977 | 1029 ft | 145 kts | 77° |
| 2026-04-25 16:21 | 51.13927 | -0.25422 | 848 ft | 143 kts | 78° |
| 2026-04-25 16:21 | 51.14147 | -0.23870 | 636 ft | 144 kts | 76° |
| 2026-04-25 16:21 | 51.14361 | -0.22304 | 428 ft | 144 kts | 78° |
| 2026-04-25 16:21 | 51.14578 | -0.20754 | 252 ft | 142 kts | 78° |
| 2026-04-25 16:22 | 51.14774 | -0.19337 | 212 ft | 112 kts | 77° |
| 2026-04-25 16:22 | 51.14898 | -0.18432 | 209 ft | 64 kts | 77° |
| 2026-04-25 16:22 | 51.14998 | -0.17929 | 214 ft | 32 kts | 60° |
| 2026-04-25 16:22 | 51.15098 | -0.17762 | 206 ft | 15 kts | 8° |
| 2026-04-25 16:23 | 51.15159 | -0.17769 | 205 ft | 0 kts | 353° |
| 2026-04-25 16:23 | 51.15161 | -0.17770 | 211 ft | 1 kts | 353° |
| 2026-04-25 16:23 | 51.15178 | -0.17773 | 216 ft | 0 kts | 353° |
| 2026-04-25 16:24 | 51.15180 | -0.17773 | 216 ft | 1 kts | 353° |
| 2026-04-25 16:24 | 51.15188 | -0.17775 | 205 ft | 0 kts | 353° |
| 2026-04-25 16:25 | 51.15190 | -0.17775 | 205 ft | 0 kts | 353° |
| 2026-04-25 16:26 | 51.15193 | -0.17776 | 205 ft | 1 kts | 353° |
| 2026-04-25 16:26 | 51.15206 | -0.17779 | 209 ft | 3 kts | 353° |
| 2026-04-25 16:26 | 51.15241 | -0.17774 | 205 ft | 7 kts | 20° |
| 2026-04-25 16:27 | 51.15269 | -0.17691 | 208 ft | 11 kts | 76° |
| 2026-04-25 16:27 | 51.15287 | -0.17559 | 205 ft | 14 kts | 78° |
| 2026-04-25 16:27 | 51.15304 | -0.17390 | 215 ft | 17 kts | 85° |
| 2026-04-25 16:27 | 51.15325 | -0.17190 | 205 ft | 19 kts | 78° |
| 2026-04-25 16:28 | 51.15351 | -0.17003 | 209 ft | 15 kts | 77° |
| 2026-04-25 16:28 | 51.15373 | -0.16843 | 205 ft | 15 kts | 77° |
| 2026-04-25 16:28 | 51.15403 | -0.16730 | 212 ft | 10 kts | 27° |
| 2026-04-25 16:28 | 51.15447 | -0.16683 | 209 ft | 9 kts | 66° |
| 2026-04-25 16:29 | 51.15457 | -0.16611 | 207 ft | 7 kts | 78° |
| 2026-04-25 16:29 | 51.15481 | -0.16583 | 205 ft | 5 kts | 359° |
| 2026-04-25 16:29 | 51.15507 | -0.16593 | 207 ft | 1 kts | 347° |
| 2026-04-25 16:29 | 51.15520 | -0.16597 | 205 ft | 3 kts | 347° |
| 2026-04-25 16:30 | 51.15530 | -0.16600 | 205 ft | 1 kts | 348° |
| 2026-04-25 16:30 | 51.15532 | -0.16601 | 205 ft | 0 kts | 348° |